sensor_id;sensor_type;location;lat;lon;timestamp;pressure;altitude;pressure_sealevel;temperature;humidity
11678;BME280;5895;41.950;24.372;2022-09-12T00:00:46;86671.72;;;13.99;80.97
11678;BME280;5895;41.950;24.372;2022-09-12T00:03:14;86663.31;;;13.97;81.15
11678;BME280;5895;41.950;24.372;2022-09-12T00:05:41;86663.84;;;13.94;81.07
11678;BME280;5895;41.950;24.372;2022-09-12T00:08:09;86658.63;;;13.94;80.94
11678;BME280;5895;41.950;24.372;2022-09-12T00:10:37;86662.28;;;13.93;80.59
11678;BME280;5895;41.950;24.372;2022-09-12T00:13:05;86653.41;;;13.94;81.48
11678;BME280;5895;41.950;24.372;2022-09-12T00:15:37;86644.25;;;13.91;81.96
11678;BME280;5895;41.950;24.372;2022-09-12T00:18:08;86638.50;;;13.89;81.78
11678;BME280;5895;41.950;24.372;2022-09-12T00:20:40;86652.84;;;13.87;81.76
11678;BME280;5895;41.950;24.372;2022-09-12T00:23:07;86650.47;;;13.85;81.40
11678;BME280;5895;41.950;24.372;2022-09-12T00:25:40;86654.84;;;13.80;82.46
11678;BME280;5895;41.950;24.372;2022-09-12T00:28:08;86658.50;;;13.79;80.28
11678;BME280;5895;41.950;24.372;2022-09-12T00:30:39;86657.97;;;13.76;80.93
11678;BME280;5895;41.950;24.372;2022-09-12T00:33:10;86653.25;;;13.73;80.38
11678;BME280;5895;41.950;24.372;2022-09-12T00:35:41;86646.97;;;13.69;80.65
11678;BME280;5895;41.950;24.372;2022-09-12T00:38:09;86647.44;;;13.66;80.45
11678;BME280;5895;41.950;24.372;2022-09-12T00:40:36;86648.50;;;13.65;80.62
11678;BME280;5895;41.950;24.372;2022-09-12T00:43:04;86656.31;;;13.65;80.24
11678;BME280;5895;41.950;24.372;2022-09-12T00:45:31;86645.09;;;13.65;80.24
11678;BME280;5895;41.950;24.372;2022-09-12T00:48:01;86642.72;;;13.63;79.66
11678;BME280;5895;41.950;24.372;2022-09-12T00:50:31;86653.16;;;13.63;79.40
11678;BME280;5895;41.950;24.372;2022-09-12T00:53:02;86660.44;;;13.61;78.57
11678;BME280;5895;41.950;24.372;2022-09-12T00:55:34;86655.75;;;13.58;79.35
11678;BME280;5895;41.950;24.372;2022-09-12T00:58:06;86649.44;;;13.54;79.23
11678;BME280;5895;41.950;24.372;2022-09-12T01:00:36;86644.72;;;13.51;78.90
11678;BME280;5895;41.950;24.372;2022-09-12T01:03:05;86644.19;;;13.49;78.78
11678;BME280;5895;41.950;24.372;2022-09-12T01:05:37;86648.06;;;13.46;79.29
11678;BME280;5895;41.950;24.372;2022-09-12T01:08:06;86650.91;;;13.45;78.81
11678;BME280;5895;41.950;24.372;2022-09-12T01:10:34;86644.13;;;13.44;79.65
11678;BME280;5895;41.950;24.372;2022-09-12T01:13:04;86647.22;;;13.41;79.67
11678;BME280;5895;41.950;24.372;2022-09-12T01:15:33;86643.56;;;13.37;78.77
11678;BME280;5895;41.950;24.372;2022-09-12T01:18:12;86637.03;;;13.39;81.28
11678;BME280;5895;41.950;24.372;2022-09-12T01:21:10;86637.25;;;13.33;82.29
11678;BME280;5895;41.950;24.372;2022-09-12T01:30:25;86651.78;;;13.29;84.89
11678;BME280;5895;41.950;24.372;2022-09-12T01:33:23;86657.50;;;13.26;82.20
11678;BME280;5895;41.950;24.372;2022-09-12T01:36:05;86654.34;;;13.23;81.89
11678;BME280;5895;41.950;24.372;2022-09-12T01:38:38;86639.19;;;13.20;80.15
11678;BME280;5895;41.950;24.372;2022-09-12T01:41:13;86641.75;;;13.15;81.49
11678;BME280;5895;41.950;24.372;2022-09-12T01:43:49;86651.06;;;13.11;81.25
11678;BME280;5895;41.950;24.372;2022-09-12T01:46:23;86649.03;;;13.13;80.26
11678;BME280;5895;41.950;24.372;2022-09-12T01:48:56;86641.22;;;13.13;80.40
11678;BME280;5895;41.950;24.372;2022-09-12T01:51:30;86632.59;;;13.13;79.89
11678;BME280;5895;41.950;24.372;2022-09-12T01:54:03;86632.31;;;13.09;80.21
11678;BME280;5895;41.950;24.372;2022-09-12T01:56:34;86635.38;;;13.06;79.43
11678;BME280;5895;41.950;24.372;2022-09-12T01:59:07;86628.09;;;13.03;80.31
11678;BME280;5895;41.950;24.372;2022-09-12T02:01:42;86624.91;;;13.01;80.43
11678;BME280;5895;41.950;24.372;2022-09-12T02:04:13;86627.47;;;12.96;78.98
11678;BME280;5895;41.950;24.372;2022-09-12T02:06:45;86619.66;;;12.96;79.28
11678;BME280;5895;41.950;24.372;2022-09-12T02:09:19;86619.13;;;12.94;79.89
11678;BME280;5895;41.950;24.372;2022-09-12T02:11:49;86622.44;;;12.89;79.56
11678;BME280;5895;41.950;24.372;2022-09-12T02:14:21;86623.75;;;12.87;80.09
11678;BME280;5895;41.950;24.372;2022-09-12T02:16:54;86627.84;;;12.83;81.41
11678;BME280;5895;41.950;24.372;2022-09-12T02:19:28;86627.78;;;12.78;79.91
11678;BME280;5895;41.950;24.372;2022-09-12T02:21:59;86631.38;;;12.71;80.24
11678;BME280;5895;41.950;24.372;2022-09-12T02:24:32;86637.88;;;12.69;80.85
11678;BME280;5895;41.950;24.372;2022-09-12T02:27:05;86629.50;;;12.67;80.98
11678;BME280;5895;41.950;24.372;2022-09-12T02:29:34;86628.72;;;12.66;79.83
11678;BME280;5895;41.950;24.372;2022-09-12T02:32:06;86632.34;;;12.65;81.04
11678;BME280;5895;41.950;24.372;2022-09-12T02:34:44;86628.44;;;12.63;80.62
11678;BME280;5895;41.950;24.372;2022-09-12T02:37:22;86626.03;;;12.61;80.89
11678;BME280;5895;41.950;24.372;2022-09-12T02:39:52;86626.53;;;12.58;80.18
11678;BME280;5895;41.950;24.372;2022-09-12T02:42:20;86638.00;;;12.57;80.04
11678;BME280;5895;41.950;24.372;2022-09-12T02:44:48;86626.53;;;12.58;80.59
11678;BME280;5895;41.950;24.372;2022-09-12T02:47:22;86628.59;;;12.56;81.13
11678;BME280;5895;41.950;24.372;2022-09-12T02:49:51;86628.53;;;12.51;80.04
11678;BME280;5895;41.950;24.372;2022-09-12T02:52:19;86625.91;;;12.51;79.37
11678;BME280;5895;41.950;24.372;2022-09-12T02:54:47;86631.63;;;12.48;79.37
11678;BME280;5895;41.950;24.372;2022-09-12T02:57:18;86631.63;;;12.48;79.69
11678;BME280;5895;41.950;24.372;2022-09-12T02:59:46;86626.88;;;12.45;79.26
11678;BME280;5895;41.950;24.372;2022-09-12T03:02:25;86625.31;;;12.44;80.73
11678;BME280;5895;41.950;24.372;2022-09-12T03:05:15;86625.03;;;12.40;81.12
11678;BME280;5895;41.950;24.372;2022-09-12T03:08:13;86628.34;;;12.36;80.85
11678;BME280;5895;41.950;24.372;2022-09-12T03:11:08;86625.97;;;12.34;80.84
11678;BME280;5895;41.950;24.372;2022-09-12T03:13:51;86632.47;;;12.32;79.62
11678;BME280;5895;41.950;24.372;2022-09-12T03:16:27;86630.63;;;12.32;80.28
11678;BME280;5895;41.950;24.372;2022-09-12T03:19:02;86622.06;;;12.32;78.90
11678;BME280;5895;41.950;24.372;2022-09-12T03:21:40;86626.72;;;12.30;79.12
11678;BME280;5895;41.950;24.372;2022-09-12T03:24:16;86625.38;;;12.27;78.21
11678;BME280;5895;41.950;24.372;2022-09-12T03:26:47;86631.84;;;12.25;78.47
11678;BME280;5895;41.950;24.372;2022-09-12T03:29:18;86627.13;;;12.22;77.57
11678;BME280;5895;41.950;24.372;2022-09-12T03:31:51;86625.78;;;12.19;79.29
11678;BME280;5895;41.950;24.372;2022-09-12T03:34:21;86629.66;;;12.16;77.63
11678;BME280;5895;41.950;24.372;2022-09-12T03:36:49;86631.19;;;12.12;78.46
11678;BME280;5895;41.950;24.372;2022-09-12T03:39:17;86635.81;;;12.10;77.66
11678;BME280;5895;41.950;24.372;2022-09-12T03:41:45;86622.56;;;12.12;78.05
11678;BME280;5895;41.950;24.372;2022-09-12T03:44:12;86634.78;;;12.11;77.91
11678;BME280;5895;41.950;24.372;2022-09-12T03:46:39;86636.06;;;12.09;77.68
11678;BME280;5895;41.950;24.372;2022-09-12T03:49:07;86624.09;;;12.08;77.71
11678;BME280;5895;41.950;24.372;2022-09-12T03:51:37;86630.53;;;12.05;77.81
11678;BME280;5895;41.950;24.372;2022-09-12T03:54:05;86633.72;;;12.07;78.17
11678;BME280;5895;41.950;24.372;2022-09-12T03:56:32;86632.09;;;12.06;78.13
11678;BME280;5895;41.950;24.372;2022-09-12T03:59:04;86636.31;;;12.07;78.73
11678;BME280;5895;41.950;24.372;2022-09-12T04:01:32;86636.78;;;12.04;77.81
11678;BME280;5895;41.950;24.372;2022-09-12T04:03:59;86632.84;;;12.02;77.37
11678;BME280;5895;41.950;24.372;2022-09-12T04:06:27;86632.84;;;12.02;77.68
11678;BME280;5895;41.950;24.372;2022-09-12T04:08:57;86639.63;;;12.03;78.05
11678;BME280;5895;41.950;24.372;2022-09-12T04:11:24;86637.25;;;12.01;77.42
11678;BME280;5895;41.950;24.372;2022-09-12T04:13:52;86642.47;;;12.01;77.88
11678;BME280;5895;41.950;24.372;2022-09-12T04:16:19;86642.47;;;12.01;78.36
11678;BME280;5895;41.950;24.372;2022-09-12T04:18:47;86647.09;;;11.99;77.98
11678;BME280;5895;41.950;24.372;2022-09-12T04:21:16;86648.13;;;11.98;78.83
11678;BME280;5895;41.950;24.372;2022-09-12T04:23:44;86641.91;;;11.99;78.50
11678;BME280;5895;41.950;24.372;2022-09-12T04:26:13;86636.16;;;11.97;78.30
11678;BME280;5895;41.950;24.372;2022-09-12T04:28:42;86643.41;;;11.95;77.96
11678;BME280;5895;41.950;24.372;2022-09-12T04:31:12;86640.25;;;11.93;78.11
11678;BME280;5895;41.950;24.372;2022-09-12T04:33:42;86645.44;;;11.93;78.02
11678;BME280;5895;41.950;24.372;2022-09-12T04:36:11;86637.66;;;11.93;78.36
11678;BME280;5895;41.950;24.372;2022-09-12T04:38:42;86645.13;;;11.89;78.15
11678;BME280;5895;41.950;24.372;2022-09-12T04:41:11;86649.53;;;11.89;77.75
11678;BME280;5895;41.950;24.372;2022-09-12T04:43:41;86655.31;;;11.91;78.18
11678;BME280;5895;41.950;24.372;2022-09-12T04:46:10;86662.00;;;11.87;78.29
11678;BME280;5895;41.950;24.372;2022-09-12T04:48:37;86653.34;;;11.81;77.75
11678;BME280;5895;41.950;24.372;2022-09-12T04:51:06;86661.94;;;11.82;77.32
11678;BME280;5895;41.950;24.372;2022-09-12T04:53:34;86664.53;;;11.82;77.75
11678;BME280;5895;41.950;24.372;2022-09-12T04:56:04;86675.38;;;11.79;78.49
11678;BME280;5895;41.950;24.372;2022-09-12T04:58:32;86671.75;;;11.80;78.05
11678;BME280;5895;41.950;24.372;2022-09-12T05:01:06;86679.66;;;11.85;78.52
11678;BME280;5895;41.950;24.372;2022-09-12T05:03:34;86666.75;;;11.90;77.16
11678;BME280;5895;41.950;24.372;2022-09-12T05:06:04;86668.31;;;11.91;77.34
11678;BME280;5895;41.950;24.372;2022-09-12T05:08:33;86687.06;;;11.93;77.95
11678;BME280;5895;41.950;24.372;2022-09-12T05:11:01;86679.25;;;11.93;77.78
11678;BME280;5895;41.950;24.372;2022-09-12T05:13:30;86688.09;;;11.92;77.73
11678;BME280;5895;41.950;24.372;2022-09-12T05:15:58;86688.16;;;11.97;77.76
11678;BME280;5895;41.950;24.372;2022-09-12T05:18:30;86684.53;;;11.98;77.73
11678;BME280;5895;41.950;24.372;2022-09-12T05:20:58;86682.47;;;12.00;77.53
11678;BME280;5895;41.950;24.372;2022-09-12T05:23:26;86676.47;;;12.00;77.99
11678;BME280;5895;41.950;24.372;2022-09-12T05:25:55;86677.59;;;12.04;77.97
11678;BME280;5895;41.950;24.372;2022-09-12T05:28:24;86675.53;;;12.06;77.45
11678;BME280;5895;41.950;24.372;2022-09-12T05:30:59;86670.66;;;12.09;77.33
11678;BME280;5895;41.950;24.372;2022-09-12T05:33:29;86670.66;;;12.09;77.43
11678;BME280;5895;41.950;24.372;2022-09-12T05:35:57;86674.81;;;12.10;77.50
11678;BME280;5895;41.950;24.372;2022-09-12T05:38:25;86671.44;;;12.10;76.81
11678;BME280;5895;41.950;24.372;2022-09-12T05:40:54;86672.84;;;12.17;77.44
11678;BME280;5895;41.950;24.372;2022-09-12T05:43:28;86677.88;;;12.24;76.69
11678;BME280;5895;41.950;24.372;2022-09-12T05:46:00;86676.63;;;12.27;77.53
11678;BME280;5895;41.950;24.372;2022-09-12T05:48:29;86674.53;;;12.29;77.05
11678;BME280;5895;41.950;24.372;2022-09-12T05:51:01;86677.16;;;12.29;76.43
11678;BME280;5895;41.950;24.372;2022-09-12T05:53:29;86675.38;;;12.29;76.43
11678;BME280;5895;41.950;24.372;2022-09-12T05:56:06;86677.47;;;12.32;77.88
11678;BME280;5895;41.950;24.372;2022-09-12T05:58:34;86676.75;;;12.37;75.78
11678;BME280;5895;41.950;24.372;2022-09-12T06:01:04;86675.47;;;12.39;76.03
11678;BME280;5895;41.950;24.372;2022-09-12T06:03:34;86672.16;;;12.44;76.32
11678;BME280;5895;41.950;24.372;2022-09-12T06:06:03;86679.50;;;12.47;76.30
11678;BME280;5895;41.950;24.372;2022-09-12T06:08:31;86674.34;;;12.52;75.84
11678;BME280;5895;41.950;24.372;2022-09-12T06:11:00;86672.28;;;12.54;76.13
11678;BME280;5895;41.950;24.372;2022-09-12T06:13:30;86664.56;;;12.59;75.80
11678;BME280;5895;41.950;24.372;2022-09-12T06:16:02;86672.44;;;12.64;75.46
11678;BME280;5895;41.950;24.372;2022-09-12T06:18:30;86669.09;;;12.69;75.42
11678;BME280;5895;41.950;24.372;2022-09-12T06:21:03;86672.63;;;12.80;75.69
11678;BME280;5895;41.950;24.372;2022-09-12T06:23:31;86676.41;;;12.94;75.28
11678;BME280;5895;41.950;24.372;2022-09-12T06:25:59;86672.28;;;12.98;74.44
11678;BME280;5895;41.950;24.372;2022-09-12T06:28:26;86674.97;;;13.03;74.77
11678;BME280;5895;41.950;24.372;2022-09-12T06:31:00;86666.69;;;13.11;75.87
11678;BME280;5895;41.950;24.372;2022-09-12T06:33:29;86662.41;;;13.22;73.90
11678;BME280;5895;41.950;24.372;2022-09-12T06:36:03;86665.84;;;13.28;75.14
11678;BME280;5895;41.950;24.372;2022-09-12T06:38:31;86664.41;;;13.37;73.94
11678;BME280;5895;41.950;24.372;2022-09-12T06:40:59;86664.97;;;13.44;73.34
11678;BME280;5895;41.950;24.372;2022-09-12T06:43:27;86669.19;;;13.50;73.05
11678;BME280;5895;41.950;24.372;2022-09-12T06:45:55;86672.84;;;13.49;73.58
11678;BME280;5895;41.950;24.372;2022-09-12T06:48:24;86681.25;;;13.56;72.87
11678;BME280;5895;41.950;24.372;2022-09-12T06:50:56;86676.59;;;13.58;73.15
11678;BME280;5895;41.950;24.372;2022-09-12T06:53:26;86682.34;;;13.60;73.41
11678;BME280;5895;41.950;24.372;2022-09-12T06:55:56;86672.22;;;13.69;72.53
11678;BME280;5895;41.950;24.372;2022-09-12T06:58:24;86675.66;;;13.69;72.56
11678;BME280;5895;41.950;24.372;2022-09-12T07:00:52;86667.38;;;13.77;72.54
11678;BME280;5895;41.950;24.372;2022-09-12T07:03:20;86679.41;;;13.84;72.42
11678;BME280;5895;41.950;24.372;2022-09-12T07:05:48;86673.97;;;13.90;72.44
11678;BME280;5895;41.950;24.372;2022-09-12T07:08:15;86671.16;;;13.97;71.82
11678;BME280;5895;41.950;24.372;2022-09-12T07:10:44;86684.00;;;14.03;72.16
11678;BME280;5895;41.950;24.372;2022-09-12T07:13:12;86680.94;;;14.12;72.06
11678;BME280;5895;41.950;24.372;2022-09-12T07:15:39;86696.38;;;14.18;71.52
11678;BME280;5895;41.950;24.372;2022-09-12T07:18:09;86688.34;;;14.30;71.38
11678;BME280;5895;41.950;24.372;2022-09-12T07:20:37;86677.91;;;14.30;71.42
11678;BME280;5895;41.950;24.372;2022-09-12T07:23:04;86689.94;;;14.31;72.27
11678;BME280;5895;41.950;24.372;2022-09-12T07:25:32;86688.72;;;14.44;71.67
11678;BME280;5895;41.950;24.372;2022-09-12T07:28:01;86691.41;;;14.49;71.50
11678;BME280;5895;41.950;24.372;2022-09-12T07:30:29;86695.31;;;14.51;71.40
11678;BME280;5895;41.950;24.372;2022-09-12T07:32:56;86689.91;;;14.63;71.16
11678;BME280;5895;41.950;24.372;2022-09-12T07:35:24;86697.28;;;14.71;71.90
11678;BME280;5895;41.950;24.372;2022-09-12T07:37:51;86696.31;;;14.88;71.12
11678;BME280;5895;41.950;24.372;2022-09-12T07:40:19;86691.13;;;14.93;70.57
11678;BME280;5895;41.950;24.372;2022-09-12T07:42:46;86690.66;;;15.06;70.21
11678;BME280;5895;41.950;24.372;2022-09-12T07:45:15;86685.94;;;15.08;69.34
11678;BME280;5895;41.950;24.372;2022-09-12T07:47:43;86693.19;;;14.91;69.21
11678;BME280;5895;41.950;24.372;2022-09-12T07:50:11;86695.31;;;14.99;69.20
11678;BME280;5895;41.950;24.372;2022-09-12T07:52:38;86705.31;;;15.12;69.25
11678;BME280;5895;41.950;24.372;2022-09-12T07:55:06;86689.66;;;15.22;68.85
11678;BME280;5895;41.950;24.372;2022-09-12T07:57:34;86704.81;;;15.20;69.37
11678;BME280;5895;41.950;24.372;2022-09-12T08:00:02;86698.56;;;15.31;69.05
11678;BME280;5895;41.950;24.372;2022-09-12T08:02:32;86702.28;;;15.41;69.31
11678;BME280;5895;41.950;24.372;2022-09-12T08:05:00;86701.84;;;15.64;68.36
11678;BME280;5895;41.950;24.372;2022-09-12T08:07:27;86707.88;;;15.75;68.01
11678;BME280;5895;41.950;24.372;2022-09-12T08:09:55;86705.28;;;15.80;67.54
11678;BME280;5895;41.950;24.372;2022-09-12T08:12:22;86688.28;;;15.93;66.91
11678;BME280;5895;41.950;24.372;2022-09-12T08:14:50;86697.47;;;15.95;66.45
11678;BME280;5895;41.950;24.372;2022-09-12T08:17:17;86692.22;;;16.10;65.77
11678;BME280;5895;41.950;24.372;2022-09-12T08:19:46;86697.72;;;16.19;65.99
11678;BME280;5895;41.950;24.372;2022-09-12T08:22:14;86699.81;;;16.37;65.30
11678;BME280;5895;41.950;24.372;2022-09-12T08:24:41;86697.19;;;16.43;65.25
11678;BME280;5895;41.950;24.372;2022-09-12T08:27:09;86700.31;;;16.60;65.40
11678;BME280;5895;41.950;24.372;2022-09-12T08:29:37;86695.63;;;16.72;64.62
11678;BME280;5895;41.950;24.372;2022-09-12T08:32:04;86694.56;;;16.68;64.33
11678;BME280;5895;41.950;24.372;2022-09-12T08:34:32;86700.31;;;16.55;64.24
11678;BME280;5895;41.950;24.372;2022-09-12T08:37:01;86696.13;;;16.64;64.16
11678;BME280;5895;41.950;24.372;2022-09-12T08:39:28;86689.31;;;16.88;63.66
11678;BME280;5895;41.950;24.372;2022-09-12T08:41:59;86690.81;;;17.10;63.53
11678;BME280;5895;41.950;24.372;2022-09-12T08:47:25;86693.03;;;17.52;62.06
11678;BME280;5895;41.950;24.372;2022-09-12T08:50:09;86692.31;;;17.41;61.28
11678;BME280;5895;41.950;24.372;2022-09-12T08:52:44;86692.34;;;17.31;62.00
11678;BME280;5895;41.950;24.372;2022-09-12T08:55:29;86689.78;;;17.06;59.73
11678;BME280;5895;41.950;24.372;2022-09-12T08:57:57;86704.16;;;17.29;62.48
11678;BME280;5895;41.950;24.372;2022-09-12T09:00:32;86693.91;;;17.32;61.25
11678;BME280;5895;41.950;24.372;2022-09-12T09:03:31;86695.41;;;17.54;60.92
11678;BME280;5895;41.950;24.372;2022-09-12T09:06:16;86693.38;;;17.90;60.27
11678;BME280;5895;41.950;24.372;2022-09-12T09:08:55;86692.72;;;18.18;59.33
11678;BME280;5895;41.950;24.372;2022-09-12T09:11:38;86692.09;;;18.32;61.45
11678;BME280;5895;41.950;24.372;2022-09-12T09:14:20;86701.72;;;18.46;59.05
11678;BME280;5895;41.950;24.372;2022-09-12T09:17:12;86695.03;;;18.25;61.70
11678;BME280;5895;41.950;24.372;2022-09-12T09:19:45;86701.00;;;17.96;60.11
11678;BME280;5895;41.950;24.372;2022-09-12T09:22:16;86701.09;;;17.71;62.34
11678;BME280;5895;41.950;24.372;2022-09-12T09:24:53;86698.47;;;17.76;60.82
11678;BME280;5895;41.950;24.372;2022-09-12T09:27:27;86685.25;;;17.96;60.39
11678;BME280;5895;41.950;24.372;2022-09-12T09:29:58;86692.88;;;17.93;61.92
11678;BME280;5895;41.950;24.372;2022-09-12T09:32:26;86687.72;;;17.67;62.71
11678;BME280;5895;41.950;24.372;2022-09-12T09:34:54;86697.94;;;17.79;62.56
11678;BME280;5895;41.950;24.372;2022-09-12T09:37:27;86687.19;;;18.20;60.14
11678;BME280;5895;41.950;24.372;2022-09-12T09:40:07;86686.53;;;18.38;59.00
11678;BME280;5895;41.950;24.372;2022-09-12T09:42:44;86688.16;;;18.29;59.36
11678;BME280;5895;41.950;24.372;2022-09-12T09:45:20;86680.59;;;18.22;60.98
11678;BME280;5895;41.950;24.372;2022-09-12T09:47:50;86692.66;;;18.23;61.70
11678;BME280;5895;41.950;24.372;2022-09-12T09:50:19;86689.28;;;18.18;62.32
11678;BME280;5895;41.950;24.372;2022-09-12T09:52:48;86695.16;;;18.05;61.88
11678;BME280;5895;41.950;24.372;2022-09-12T09:55:20;86698.91;;;17.93;62.39
11678;BME280;5895;41.950;24.372;2022-09-12T09:57:49;86700.31;;;17.70;63.21
11678;BME280;5895;41.950;24.372;2022-09-12T10:00:26;86708.53;;;17.49;62.89
11678;BME280;5895;41.950;24.372;2022-09-12T10:05:46;86694.22;;;17.21;63.78
11678;BME280;5895;41.950;24.372;2022-09-12T10:08:20;86693.53;;;17.59;62.42
11678;BME280;5895;41.950;24.372;2022-09-12T10:11:01;86694.53;;;18.18;60.58
11678;BME280;5895;41.950;24.372;2022-09-12T10:13:40;86691.28;;;18.70;59.27
11678;BME280;5895;41.950;24.372;2022-09-12T10:16:18;86697.19;;;19.15;58.43
11678;BME280;5895;41.950;24.372;2022-09-12T10:18:47;86692.94;;;19.43;59.24
11678;BME280;5895;41.950;24.372;2022-09-12T10:21:33;86689.63;;;19.56;53.97
11678;BME280;5895;41.950;24.372;2022-09-12T10:24:16;86686.91;;;19.43;55.31
11678;BME280;5895;41.950;24.372;2022-09-12T10:26:50;86698.88;;;19.78;58.06
11678;BME280;5895;41.950;24.372;2022-09-12T10:29:22;86691.41;;;19.85;58.24
11678;BME280;5895;41.950;24.372;2022-09-12T10:31:54;86698.06;;;20.01;58.26
11678;BME280;5895;41.950;24.372;2022-09-12T10:34:28;86703.28;;;20.44;56.51
11678;BME280;5895;41.950;24.372;2022-09-12T10:37:03;86701.25;;;20.74;56.91
11678;BME280;5895;41.950;24.372;2022-09-12T10:39:32;86700.69;;;21.09;56.86
11678;BME280;5895;41.950;24.372;2022-09-12T10:44:32;86691.97;;;21.42;56.47
11678;BME280;5895;41.950;24.372;2022-09-12T10:47:18;86686.69;;;21.42;51.54
11678;BME280;5895;41.950;24.372;2022-09-12T10:49:46;86685.53;;;21.61;56.42
11678;BME280;5895;41.950;24.372;2022-09-12T10:52:17;86676.53;;;21.90;55.61
11678;BME280;5895;41.950;24.372;2022-09-12T10:54:47;86680.44;;;22.06;55.81
11678;BME280;5895;41.950;24.372;2022-09-12T11:00:18;86671.56;;;22.38;55.25
11678;BME280;5895;41.950;24.372;2022-09-12T11:03:01;86689.19;;;22.43;50.53
11678;BME280;5895;41.950;24.372;2022-09-12T11:05:42;86683.66;;;22.03;53.02
11678;BME280;5895;41.950;24.372;2022-09-12T11:08:37;86687.84;;;21.49;51.08
11678;BME280;5895;41.950;24.372;2022-09-12T11:11:14;86700.28;;;21.02;54.02
11678;BME280;5895;41.950;24.372;2022-09-12T11:13:55;86679.94;;;20.89;53.64
11678;BME280;5895;41.950;24.372;2022-09-12T11:16:31;86692.19;;;20.80;55.65
11678;BME280;5895;41.950;24.372;2022-09-12T11:19:35;86672.22;;;20.22;51.45
11678;BME280;5895;41.950;24.372;2022-09-12T11:22:18;86681.59;;;19.72;54.30
11678;BME280;5895;41.950;24.372;2022-09-12T11:25:11;86690.31;;;19.43;55.71
11678;BME280;5895;41.950;24.372;2022-09-12T11:27:54;86691.94;;;19.15;56.71
11678;BME280;5895;41.950;24.372;2022-09-12T11:30:32;86692.84;;;19.53;57.63
11678;BME280;5895;41.950;24.372;2022-09-12T11:33:09;86694.16;;;20.18;56.48
11678;BME280;5895;41.950;24.372;2022-09-12T11:35:46;86691.09;;;20.67;54.01
11678;BME280;5895;41.950;24.372;2022-09-12T11:38:38;86689.47;;;20.85;52.74
11678;BME280;5895;41.950;24.372;2022-09-12T11:41:15;86686.38;;;20.83;55.30
11678;BME280;5895;41.950;24.372;2022-09-12T11:43:48;86676.97;;;20.77;54.34
11678;BME280;5895;41.950;24.372;2022-09-12T11:46:22;86683.66;;;20.88;54.68
11678;BME280;5895;41.950;24.372;2022-09-12T11:48:56;86686.03;;;21.50;54.48
11678;BME280;5895;41.950;24.372;2022-09-12T11:51:27;86677.28;;;22.04;54.27
11678;BME280;5895;41.950;24.372;2022-09-12T11:54:11;86683.66;;;22.03;49.57
11678;BME280;5895;41.950;24.372;2022-09-12T11:56:44;86684.94;;;22.06;52.54
11678;BME280;5895;41.950;24.372;2022-09-12T11:59:17;86678.84;;;22.05;52.75
11678;BME280;5895;41.950;24.372;2022-09-12T12:01:50;86670.00;;;22.37;51.14
11678;BME280;5895;41.950;24.372;2022-09-12T12:04:27;86671.53;;;22.52;52.57
11678;BME280;5895;41.950;24.372;2022-09-12T12:07:02;86674.53;;;22.09;52.39
11678;BME280;5895;41.950;24.372;2022-09-12T12:09:30;86679.16;;;21.90;55.65
11678;BME280;5895;41.950;24.372;2022-09-12T12:12:02;86672.63;;;21.74;54.54
11678;BME280;5895;41.950;24.372;2022-09-12T12:14:36;86669.28;;;21.82;52.91
11678;BME280;5895;41.950;24.372;2022-09-12T12:17:14;86663.22;;;22.23;52.40
11678;BME280;5895;41.950;24.372;2022-09-12T12:19:42;86673.19;;;21.98;55.79
11678;BME280;5895;41.950;24.372;2022-09-12T12:22:20;86661.84;;;21.70;53.14
11678;BME280;5895;41.950;24.372;2022-09-12T12:25:03;86669.97;;;21.46;50.64
11678;BME280;5895;41.950;24.372;2022-09-12T12:27:50;86675.16;;;21.51;48.95
11678;BME280;5895;41.950;24.372;2022-09-12T12:33:59;86665.97;;;21.90;51.91
11678;BME280;5895;41.950;24.372;2022-09-12T12:36:36;86671.16;;;21.95;53.15
11678;BME280;5895;41.950;24.372;2022-09-12T12:46:01;86661.22;;;22.87;46.79
11678;BME280;5895;41.950;24.372;2022-09-12T12:48:32;86665.09;;;23.03;52.67
11678;BME280;5895;41.950;24.372;2022-09-12T12:51:31;86665.09;;;23.34;45.28
11678;BME280;5895;41.950;24.372;2022-09-12T12:54:00;86662.22;;;22.91;52.59
11678;BME280;5895;41.950;24.372;2022-09-12T12:56:34;86663.75;;;22.33;49.16
11678;BME280;5895;41.950;24.372;2022-09-12T12:59:14;86669.69;;;21.89;48.37
11678;BME280;5895;41.950;24.372;2022-09-12T13:01:48;86672.44;;;21.56;52.34
11678;BME280;5895;41.950;24.372;2022-09-12T13:04:18;86672.50;;;21.37;55.74
11678;BME280;5895;41.950;24.372;2022-09-12T13:06:55;86671.28;;;21.16;50.90
11678;BME280;5895;41.950;24.372;2022-09-12T13:09:26;86671.25;;;21.02;55.13
11678;BME280;5895;41.950;24.372;2022-09-12T13:11:59;86663.09;;;20.85;55.80
11678;BME280;5895;41.950;24.372;2022-09-12T13:14:47;86671.94;;;20.62;51.89
11678;BME280;5895;41.950;24.372;2022-09-12T13:17:19;86676.88;;;20.49;54.48
11678;BME280;5895;41.950;24.372;2022-09-12T13:19:49;86663.16;;;20.66;56.66
11678;BME280;5895;41.950;24.372;2022-09-12T13:22:21;86664.91;;;21.03;54.44
11678;BME280;5895;41.950;24.372;2022-09-12T13:24:50;86658.13;;;21.30;54.81
11678;BME280;5895;41.950;24.372;2022-09-12T13:27:20;86662.56;;;21.16;54.24
11678;BME280;5895;41.950;24.372;2022-09-12T13:29:48;86650.88;;;21.22;54.89
11678;BME280;5895;41.950;24.372;2022-09-12T13:32:17;86657.06;;;20.98;54.98
11678;BME280;5895;41.950;24.372;2022-09-12T13:34:58;86657.03;;;20.71;50.92
11678;BME280;5895;41.950;24.372;2022-09-12T13:37:40;86652.34;;;20.81;51.47
11678;BME280;5895;41.950;24.372;2022-09-12T13:40:28;86655.13;;;20.90;50.89
11678;BME280;5895;41.950;24.372;2022-09-12T13:43:08;86650.78;;;20.80;51.56
11678;BME280;5895;41.950;24.372;2022-09-12T13:45:40;86661.19;;;21.04;55.22
11678;BME280;5895;41.950;24.372;2022-09-12T13:48:12;86662.34;;;20.84;52.04
11678;BME280;5895;41.950;24.372;2022-09-12T13:50:50;86654.75;;;20.64;51.23
11678;BME280;5895;41.950;24.372;2022-09-12T13:53:22;86657.97;;;20.61;51.55
11678;BME280;5895;41.950;24.372;2022-09-12T13:55:54;86657.91;;;20.47;55.47